sensor_id;sensor_type;location;lat;lon;timestamp;temperature;humidity
23633;DHT22;11993;48.748;9.166;2023-10-08T00:02:12;16.00;46.00
23633;DHT22;11993;48.748;9.166;2023-10-08T00:04:39;16.10;45.80
23633;DHT22;11993;48.748;9.166;2023-10-08T00:07:05;15.90;46.20
23633;DHT22;11993;48.748;9.166;2023-10-08T00:09:34;15.80;46.50
23633;DHT22;11993;48.748;9.166;2023-10-08T00:12:03;15.80;46.80
23633;DHT22;11993;48.748;9.166;2023-10-08T00:14:30;15.70;47.20
23633;DHT22;11993;48.748;9.166;2023-10-08T00:16:57;15.60;47.60
23633;DHT22;11993;48.748;9.166;2023-10-08T00:19:23;15.60;47.80
23633;DHT22;11993;48.748;9.166;2023-10-08T00:21:50;15.60;47.70
23633;DHT22;11993;48.748;9.166;2023-10-08T00:24:18;15.70;47.20
23633;DHT22;11993;48.748;9.166;2023-10-08T00:26:44;15.60;47.50
23633;DHT22;11993;48.748;9.166;2023-10-08T00:29:09;15.50;47.80
23633;DHT22;11993;48.748;9.166;2023-10-08T00:31:48;15.50;47.80
23633;DHT22;11993;48.748;9.166;2023-10-08T00:34:16;15.60;47.40
23633;DHT22;11993;48.748;9.166;2023-10-08T00:36:45;15.60;47.30
23633;DHT22;11993;48.748;9.166;2023-10-08T00:39:12;15.60;47.20
23633;DHT22;11993;48.748;9.166;2023-10-08T00:42:00;15.60;47.00
23633;DHT22;11993;48.748;9.166;2023-10-08T00:44:30;15.80;46.60
23633;DHT22;11993;48.748;9.166;2023-10-08T00:46:57;15.90;46.60
23633;DHT22;11993;48.748;9.166;2023-10-08T00:49:27;16.00;46.20
23633;DHT22;11993;48.748;9.166;2023-10-08T00:52:06;16.00;46.30
23633;DHT22;11993;48.748;9.166;2023-10-08T00:54:34;16.00;46.20
23633;DHT22;11993;48.748;9.166;2023-10-08T00:57:13;15.90;46.30
23633;DHT22;11993;48.748;9.166;2023-10-08T00:59:43;16.00;46.30
23633;DHT22;11993;48.748;9.166;2023-10-08T01:02:15;15.90;46.70
23633;DHT22;11993;48.748;9.166;2023-10-08T01:04:42;15.90;46.60
23633;DHT22;11993;48.748;9.166;2023-10-08T01:07:10;15.80;46.60
23633;DHT22;11993;48.748;9.166;2023-10-08T01:09:39;15.90;46.60
23633;DHT22;11993;48.748;9.166;2023-10-08T01:15:29;15.90;46.80
23633;DHT22;11993;48.748;9.166;2023-10-08T01:17:56;15.80;46.70
23633;DHT22;11993;48.748;9.166;2023-10-08T01:20:29;15.80;46.70
23633;DHT22;11993;48.748;9.166;2023-10-08T01:23:05;15.90;46.40
23633;DHT22;11993;48.748;9.166;2023-10-08T01:25:39;15.90;46.50
23633;DHT22;11993;48.748;9.166;2023-10-08T01:28:07;15.90;46.70
23633;DHT22;11993;48.748;9.166;2023-10-08T01:30:53;15.90;46.70
23633;DHT22;11993;48.748;9.166;2023-10-08T01:33:22;15.80;46.60
23633;DHT22;11993;48.748;9.166;2023-10-08T01:35:54;15.80;46.80
23633;DHT22;11993;48.748;9.166;2023-10-08T01:38:20;15.70;46.90
23633;DHT22;11993;48.748;9.166;2023-10-08T01:40:50;15.70;46.80
23633;DHT22;11993;48.748;9.166;2023-10-08T01:43:19;15.60;47.10
23633;DHT22;11993;48.748;9.166;2023-10-08T01:45:46;15.70;47.10
23633;DHT22;11993;48.748;9.166;2023-10-08T01:48:17;15.70;47.10
23633;DHT22;11993;48.748;9.166;2023-10-08T01:50:46;15.80;46.90
23633;DHT22;11993;48.748;9.166;2023-10-08T01:53:14;15.80;46.70
23633;DHT22;11993;48.748;9.166;2023-10-08T01:55:40;15.90;46.20
23633;DHT22;11993;48.748;9.166;2023-10-08T01:58:18;16.00;46.10
23633;DHT22;11993;48.748;9.166;2023-10-08T02:00:46;16.00;46.30
23633;DHT22;11993;48.748;9.166;2023-10-08T02:03:13;15.90;46.40
23633;DHT22;11993;48.748;9.166;2023-10-08T02:05:42;16.00;46.50
23633;DHT22;11993;48.748;9.166;2023-10-08T02:08:09;15.90;46.50
23633;DHT22;11993;48.748;9.166;2023-10-08T02:10:35;15.80;46.60
23633;DHT22;11993;48.748;9.166;2023-10-08T02:13:01;15.80;46.50
23633;DHT22;11993;48.748;9.166;2023-10-08T02:15:27;15.80;46.80
23633;DHT22;11993;48.748;9.166;2023-10-08T02:17:53;15.90;46.50
23633;DHT22;11993;48.748;9.166;2023-10-08T02:20:20;15.90;46.70
23633;DHT22;11993;48.748;9.166;2023-10-08T02:22:47;15.90;46.60
23633;DHT22;11993;48.748;9.166;2023-10-08T02:25:15;15.90;46.60
23633;DHT22;11993;48.748;9.166;2023-10-08T02:27:40;15.90;46.80
23633;DHT22;11993;48.748;9.166;2023-10-08T02:30:07;15.90;46.50
23633;DHT22;11993;48.748;9.166;2023-10-08T02:32:35;16.00;46.50
23633;DHT22;11993;48.748;9.166;2023-10-08T02:35:02;15.90;46.50
23633;DHT22;11993;48.748;9.166;2023-10-08T02:37:28;15.90;46.60
23633;DHT22;11993;48.748;9.166;2023-10-08T02:39:54;15.90;46.80
23633;DHT22;11993;48.748;9.166;2023-10-08T02:42:20;15.90;46.80
23633;DHT22;11993;48.748;9.166;2023-10-08T02:44:47;15.90;46.70
23633;DHT22;11993;48.748;9.166;2023-10-08T02:47:13;15.80;46.60
23633;DHT22;11993;48.748;9.166;2023-10-08T02:49:46;15.90;46.60
23633;DHT22;11993;48.748;9.166;2023-10-08T02:52:14;15.80;46.70
23633;DHT22;11993;48.748;9.166;2023-10-08T02:54:41;15.80;46.70
23633;DHT22;11993;48.748;9.166;2023-10-08T02:57:07;15.80;46.60
23633;DHT22;11993;48.748;9.166;2023-10-08T02:59:39;15.90;46.70
23633;DHT22;11993;48.748;9.166;2023-10-08T03:02:07;15.80;46.90
23633;DHT22;11993;48.748;9.166;2023-10-08T03:04:41;15.70;47.00
23633;DHT22;11993;48.748;9.166;2023-10-08T03:07:07;15.70;47.10
23633;DHT22;11993;48.748;9.166;2023-10-08T03:09:37;15.60;47.30
23633;DHT22;11993;48.748;9.166;2023-10-08T03:12:07;15.60;47.30
23633;DHT22;11993;48.748;9.166;2023-10-08T03:14:35;15.60;47.50
23633;DHT22;11993;48.748;9.166;2023-10-08T03:17:13;15.60;47.40
23633;DHT22;11993;48.748;9.166;2023-10-08T03:19:45;15.60;47.10
23633;DHT22;11993;48.748;9.166;2023-10-08T03:22:11;15.60;47.40
23633;DHT22;11993;48.748;9.166;2023-10-08T03:24:37;15.60;47.50
23633;DHT22;11993;48.748;9.166;2023-10-08T03:27:05;15.60;47.50
23633;DHT22;11993;48.748;9.166;2023-10-08T03:29:47;15.70;46.80
23633;DHT22;11993;48.748;9.166;2023-10-08T03:32:13;15.60;47.20
23633;DHT22;11993;48.748;9.166;2023-10-08T03:34:49;15.50;47.90
23633;DHT22;11993;48.748;9.166;2023-10-08T03:37:17;15.40;47.80
23633;DHT22;11993;48.748;9.166;2023-10-08T03:39:47;15.50;47.90
23633;DHT22;11993;48.748;9.166;2023-10-08T03:42:20;15.50;47.80
23633;DHT22;11993;48.748;9.166;2023-10-08T03:44:48;15.50;47.80
23633;DHT22;11993;48.748;9.166;2023-10-08T03:47:18;15.50;47.70
23633;DHT22;11993;48.748;9.166;2023-10-08T03:49:48;15.60;47.70
23633;DHT22;11993;48.748;9.166;2023-10-08T03:52:19;15.60;47.90
23633;DHT22;11993;48.748;9.166;2023-10-08T03:54:49;15.60;48.10
23633;DHT22;11993;48.748;9.166;2023-10-08T03:57:25;15.50;48.00
23633;DHT22;11993;48.748;9.166;2023-10-08T03:59:54;15.60;47.70
23633;DHT22;11993;48.748;9.166;2023-10-08T04:02:24;15.70;47.50
23633;DHT22;11993;48.748;9.166;2023-10-08T04:05:06;15.80;47.10
23633;DHT22;11993;48.748;9.166;2023-10-08T04:07:43;15.70;47.40
23633;DHT22;11993;48.748;9.166;2023-10-08T04:10:31;15.70;47.70
23633;DHT22;11993;48.748;9.166;2023-10-08T04:13:04;15.50;48.20
23633;DHT22;11993;48.748;9.166;2023-10-08T04:15:37;15.40;48.70
23633;DHT22;11993;48.748;9.166;2023-10-08T04:18:07;15.40;48.80
23633;DHT22;11993;48.748;9.166;2023-10-08T04:20:33;15.20;49.10
23633;DHT22;11993;48.748;9.166;2023-10-08T04:22:59;15.30;49.10
23633;DHT22;11993;48.748;9.166;2023-10-08T04:25:34;15.20;49.20
23633;DHT22;11993;48.748;9.166;2023-10-08T04:28:00;15.30;48.90
23633;DHT22;11993;48.748;9.166;2023-10-08T04:30:27;15.40;49.00
23633;DHT22;11993;48.748;9.166;2023-10-08T04:33:05;15.30;48.80
23633;DHT22;11993;48.748;9.166;2023-10-08T04:35:38;15.20;49.10
23633;DHT22;11993;48.748;9.166;2023-10-08T04:38:14;15.10;49.30
23633;DHT22;11993;48.748;9.166;2023-10-08T04:40:42;15.20;49.00
23633;DHT22;11993;48.748;9.166;2023-10-08T04:43:18;15.20;49.10
23633;DHT22;11993;48.748;9.166;2023-10-08T04:45:53;15.10;49.20
23633;DHT22;11993;48.748;9.166;2023-10-08T04:48:19;15.10;49.70
23633;DHT22;11993;48.748;9.166;2023-10-08T04:50:49;15.10;49.50
23633;DHT22;11993;48.748;9.166;2023-10-08T04:53:31;15.00;49.60
23633;DHT22;11993;48.748;9.166;2023-10-08T04:55:59;15.10;49.50
23633;DHT22;11993;48.748;9.166;2023-10-08T04:58:34;15.20;49.30
23633;DHT22;11993;48.748;9.166;2023-10-08T05:01:02;15.20;49.40
23633;DHT22;11993;48.748;9.166;2023-10-08T05:03:46;15.30;49.40
23633;DHT22;11993;48.748;9.166;2023-10-08T05:06:34;15.30;49.30
23633;DHT22;11993;48.748;9.166;2023-10-08T05:09:06;15.30;49.50
23633;DHT22;11993;48.748;9.166;2023-10-08T05:11:48;15.30;49.80
23633;DHT22;11993;48.748;9.166;2023-10-08T05:14:20;15.10;50.10
23633;DHT22;11993;48.748;9.166;2023-10-08T05:16:56;15.20;50.30
23633;DHT22;11993;48.748;9.166;2023-10-08T05:19:49;15.10;50.50
23633;DHT22;11993;48.748;9.166;2023-10-08T05:22:33;15.10;50.70
23633;DHT22;11993;48.748;9.166;2023-10-08T05:24:59;15.10;50.50
23633;DHT22;11993;48.748;9.166;2023-10-08T05:27:53;15.10;50.80
23633;DHT22;11993;48.748;9.166;2023-10-08T05:30:20;15.00;51.00
23633;DHT22;11993;48.748;9.166;2023-10-08T05:33:05;15.00;51.20
23633;DHT22;11993;48.748;9.166;2023-10-08T05:35:35;14.90;51.20
23633;DHT22;11993;48.748;9.166;2023-10-08T05:38:07;15.00;51.30
23633;DHT22;11993;48.748;9.166;2023-10-08T05:40:44;14.90;51.30
23633;DHT22;11993;48.748;9.166;2023-10-08T05:43:44;14.90;51.40
23633;DHT22;11993;48.748;9.166;2023-10-08T05:46:14;14.90;51.00
23633;DHT22;11993;48.748;9.166;2023-10-08T05:48:55;14.90;50.90
23633;DHT22;11993;48.748;9.166;2023-10-08T05:51:36;14.90;50.90
23633;DHT22;11993;48.748;9.166;2023-10-08T05:54:18;15.10;50.60
23633;DHT22;11993;48.748;9.166;2023-10-08T05:57:10;15.10;50.60
23633;DHT22;11993;48.748;9.166;2023-10-08T05:59:46;15.10;50.50
23633;DHT22;11993;48.748;9.166;2023-10-08T06:05:12;15.10;50.60
23633;DHT22;11993;48.748;9.166;2023-10-08T06:07:43;15.10;50.70
23633;DHT22;11993;48.748;9.166;2023-10-08T06:10:25;15.20;50.30
23633;DHT22;11993;48.748;9.166;2023-10-08T06:15:46;15.20;50.60
23633;DHT22;11993;48.748;9.166;2023-10-08T06:18:16;15.20;50.80
23633;DHT22;11993;48.748;9.166;2023-10-08T06:20:43;15.20;50.90
23633;DHT22;11993;48.748;9.166;2023-10-08T06:23:10;15.10;50.90
23633;DHT22;11993;48.748;9.166;2023-10-08T06:25:37;15.10;51.10
23633;DHT22;11993;48.748;9.166;2023-10-08T06:30:38;15.20;50.90
23633;DHT22;11993;48.748;9.166;2023-10-08T06:33:07;15.20;51.30
23633;DHT22;11993;48.748;9.166;2023-10-08T06:35:33;15.10;51.40
23633;DHT22;11993;48.748;9.166;2023-10-08T06:37:59;15.10;51.90
23633;DHT22;11993;48.748;9.166;2023-10-08T06:40:35;15.10;51.60
23633;DHT22;11993;48.748;9.166;2023-10-08T06:43:04;15.10;51.70
23633;DHT22;11993;48.748;9.166;2023-10-08T06:45:48;15.20;51.60
23633;DHT22;11993;48.748;9.166;2023-10-08T06:48:18;15.10;52.00
23633;DHT22;11993;48.748;9.166;2023-10-08T06:50:45;15.20;52.00
23633;DHT22;11993;48.748;9.166;2023-10-08T06:53:12;15.10;52.20
23633;DHT22;11993;48.748;9.166;2023-10-08T06:55:40;15.20;52.30
23633;DHT22;11993;48.748;9.166;2023-10-08T06:58:06;15.20;52.30
23633;DHT22;11993;48.748;9.166;2023-10-08T07:00:35;15.10;52.50
23633;DHT22;11993;48.748;9.166;2023-10-08T07:03:20;15.20;52.50
23633;DHT22;11993;48.748;9.166;2023-10-08T07:05:48;15.30;52.20
23633;DHT22;11993;48.748;9.166;2023-10-08T07:08:25;15.50;52.10
23633;DHT22;11993;48.748;9.166;2023-10-08T07:10:51;15.60;52.20
23633;DHT22;11993;48.748;9.166;2023-10-08T07:13:18;16.00;51.30
23633;DHT22;11993;48.748;9.166;2023-10-08T07:15:51;16.10;50.70
23633;DHT22;11993;48.748;9.166;2023-10-08T07:18:17;16.20;50.50
23633;DHT22;11993;48.748;9.166;2023-10-08T07:20:54;16.40;50.20
23633;DHT22;11993;48.748;9.166;2023-10-08T07:23:20;16.60;49.70
23633;DHT22;11993;48.748;9.166;2023-10-08T07:26:00;16.80;49.40
23633;DHT22;11993;48.748;9.166;2023-10-08T07:28:37;16.80;49.40
23633;DHT22;11993;48.748;9.166;2023-10-08T07:31:05;16.90;49.70
23633;DHT22;11993;48.748;9.166;2023-10-08T07:33:31;17.20;49.10
23633;DHT22;11993;48.748;9.166;2023-10-08T07:36:02;17.20;49.00
23633;DHT22;11993;48.748;9.166;2023-10-08T07:38:38;17.50;48.80
23633;DHT22;11993;48.748;9.166;2023-10-08T07:41:04;17.50;49.20
23633;DHT22;11993;48.748;9.166;2023-10-08T07:43:31;17.60;48.90
23633;DHT22;11993;48.748;9.166;2023-10-08T07:45:58;17.50;49.20
23633;DHT22;11993;48.748;9.166;2023-10-08T07:48:24;17.60;49.30
23633;DHT22;11993;48.748;9.166;2023-10-08T07:50:55;17.60;48.90
23633;DHT22;11993;48.748;9.166;2023-10-08T07:53:22;17.90;48.60
23633;DHT22;11993;48.748;9.166;2023-10-08T07:55:50;17.90;49.00
23633;DHT22;11993;48.748;9.166;2023-10-08T07:58:17;18.10;49.10
23633;DHT22;11993;48.748;9.166;2023-10-08T08:00:44;18.10;49.00
23633;DHT22;11993;48.748;9.166;2023-10-08T08:03:25;18.20;48.80
23633;DHT22;11993;48.748;9.166;2023-10-08T08:05:51;18.30;48.50
23633;DHT22;11993;48.748;9.166;2023-10-08T08:08:19;18.20;49.00
23633;DHT22;11993;48.748;9.166;2023-10-08T08:10:45;18.10;48.90
23633;DHT22;11993;48.748;9.166;2023-10-08T08:13:11;17.80;49.80
23633;DHT22;11993;48.748;9.166;2023-10-08T08:15:38;18.00;49.90
23633;DHT22;11993;48.748;9.166;2023-10-08T08:18:08;18.00;49.90
23633;DHT22;11993;48.748;9.166;2023-10-08T08:20:41;17.90;50.70
23633;DHT22;11993;48.748;9.166;2023-10-08T08:23:09;17.80;51.10
23633;DHT22;11993;48.748;9.166;2023-10-08T08:25:38;17.90;50.80
23633;DHT22;11993;48.748;9.166;2023-10-08T08:28:23;18.10;50.70
23633;DHT22;11993;48.748;9.166;2023-10-08T08:30:51;18.60;50.10
23633;DHT22;11993;48.748;9.166;2023-10-08T08:33:18;18.90;50.20
23633;DHT22;11993;48.748;9.166;2023-10-08T08:36:01;19.30;50.50
23633;DHT22;11993;48.748;9.166;2023-10-08T08:38:27;19.80;50.00
23633;DHT22;11993;48.748;9.166;2023-10-08T08:41:04;20.40;48.60
23633;DHT22;11993;48.748;9.166;2023-10-08T08:43:34;20.80;47.10
23633;DHT22;11993;48.748;9.166;2023-10-08T08:46:03;21.00;46.50
23633;DHT22;11993;48.748;9.166;2023-10-08T08:48:32;21.00;45.70
23633;DHT22;11993;48.748;9.166;2023-10-08T08:51:00;21.20;46.10
23633;DHT22;11993;48.748;9.166;2023-10-08T08:53:25;21.10;46.40
23633;DHT22;11993;48.748;9.166;2023-10-08T08:55:53;21.10;46.40
23633;DHT22;11993;48.748;9.166;2023-10-08T08:58:21;21.30;46.00
23633;DHT22;11993;48.748;9.166;2023-10-08T09:00:47;21.40;45.80
23633;DHT22;11993;48.748;9.166;2023-10-08T09:03:16;21.30;45.20
23633;DHT22;11993;48.748;9.166;2023-10-08T09:05:41;21.10;46.30
23633;DHT22;11993;48.748;9.166;2023-10-08T09:08:07;21.10;46.60
23633;DHT22;11993;48.748;9.166;2023-10-08T09:10:36;20.80;47.90
23633;DHT22;11993;48.748;9.166;2023-10-08T09:13:19;20.70;46.90
23633;DHT22;11993;48.748;9.166;2023-10-08T09:15:46;21.20;45.20
23633;DHT22;11993;48.748;9.166;2023-10-08T09:18:14;21.70;43.80
23633;DHT22;11993;48.748;9.166;2023-10-08T09:20:40;22.20;44.30
23633;DHT22;11993;48.748;9.166;2023-10-08T09:23:16;22.60;43.10
23633;DHT22;11993;48.748;9.166;2023-10-08T09:25:46;23.10;42.20
23633;DHT22;11993;48.748;9.166;2023-10-08T09:28:16;23.20;41.00
23633;DHT22;11993;48.748;9.166;2023-10-08T09:30:42;23.20;41.50
23633;DHT22;11993;48.748;9.166;2023-10-08T09:33:12;24.20;40.20
23633;DHT22;11993;48.748;9.166;2023-10-08T09:35:38;24.60;39.30
23633;DHT22;11993;48.748;9.166;2023-10-08T09:38:06;24.10;39.90
23633;DHT22;11993;48.748;9.166;2023-10-08T09:40:36;24.30;39.90
23633;DHT22;11993;48.748;9.166;2023-10-08T09:43:02;23.50;39.90
23633;DHT22;11993;48.748;9.166;2023-10-08T09:45:34;23.40;40.80
23633;DHT22;11993;48.748;9.166;2023-10-08T09:48:01;22.40;42.00
23633;DHT22;11993;48.748;9.166;2023-10-08T09:50:33;22.80;41.50
23633;DHT22;11993;48.748;9.166;2023-10-08T09:53:08;22.60;42.10
23633;DHT22;11993;48.748;9.166;2023-10-08T09:55:45;22.70;42.30
23633;DHT22;11993;48.748;9.166;2023-10-08T09:58:12;22.90;42.20
23633;DHT22;11993;48.748;9.166;2023-10-08T10:00:39;22.90;41.90
23633;DHT22;11993;48.748;9.166;2023-10-08T10:03:08;22.50;42.80
23633;DHT22;11993;48.748;9.166;2023-10-08T10:05:35;22.40;43.10
23633;DHT22;11993;48.748;9.166;2023-10-08T10:08:04;22.30;43.50
23633;DHT22;11993;48.748;9.166;2023-10-08T10:10:36;22.30;44.20
23633;DHT22;11993;48.748;9.166;2023-10-08T10:13:10;22.10;44.20
23633;DHT22;11993;48.748;9.166;2023-10-08T10:15:37;22.20;44.20
23633;DHT22;11993;48.748;9.166;2023-10-08T10:18:13;22.20;44.20
23633;DHT22;11993;48.748;9.166;2023-10-08T10:20:51;22.30;44.00
23633;DHT22;11993;48.748;9.166;2023-10-08T10:23:36;22.60;44.40
23633;DHT22;11993;48.748;9.166;2023-10-08T10:31:36;22.90;42.80
23633;DHT22;11993;48.748;9.166;2023-10-08T10:34:07;23.00;44.80
23633;DHT22;11993;48.748;9.166;2023-10-08T10:36:37;22.90;43.80
23633;DHT22;11993;48.748;9.166;2023-10-08T10:39:03;23.00;44.70
23633;DHT22;11993;48.748;9.166;2023-10-08T10:41:52;23.10;43.70
23633;DHT22;11993;48.748;9.166;2023-10-08T10:44:25;23.10;44.30
23633;DHT22;11993;48.748;9.166;2023-10-08T10:46:51;23.20;45.40
23633;DHT22;11993;48.748;9.166;2023-10-08T10:49:20;23.30;46.20
23633;DHT22;11993;48.748;9.166;2023-10-08T10:51:57;24.00;44.30
23633;DHT22;11993;48.748;9.166;2023-10-08T10:54:26;24.40;43.50
23633;DHT22;11993;48.748;9.166;2023-10-08T10:57:01;24.50;42.90
23633;DHT22;11993;48.748;9.166;2023-10-08T10:59:31;24.60;43.00
23633;DHT22;11993;48.748;9.166;2023-10-08T11:02:03;24.60;43.50
23633;DHT22;11993;48.748;9.166;2023-10-08T11:04:56;24.90;42.10
23633;DHT22;11993;48.748;9.166;2023-10-08T11:07:32;25.30;41.30
23633;DHT22;11993;48.748;9.166;2023-10-08T11:09:59;25.10;40.20
23633;DHT22;11993;48.748;9.166;2023-10-08T11:12:25;24.70;40.30
23633;DHT22;11993;48.748;9.166;2023-10-08T11:15:10;24.30;41.40
23633;DHT22;11993;48.748;9.166;2023-10-08T11:17:41;24.40;42.60
23633;DHT22;11993;48.748;9.166;2023-10-08T11:20:26;24.30;42.20
23633;DHT22;11993;48.748;9.166;2023-10-08T11:22:52;24.30;42.90
23633;DHT22;11993;48.748;9.166;2023-10-08T11:25:24;24.10;42.30
23633;DHT22;11993;48.748;9.166;2023-10-08T11:27:56;24.30;42.10
23633;DHT22;11993;48.748;9.166;2023-10-08T11:30:28;24.60;41.40
23633;DHT22;11993;48.748;9.166;2023-10-08T11:32:58;24.30;41.90
23633;DHT22;11993;48.748;9.166;2023-10-08T11:35:25;24.40;41.60
23633;DHT22;11993;48.748;9.166;2023-10-08T11:37:59;24.80;40.80
23633;DHT22;11993;48.748;9.166;2023-10-08T11:40:26;25.20;40.10
23633;DHT22;11993;48.748;9.166;2023-10-08T11:43:11;25.50;39.80
23633;DHT22;11993;48.748;9.166;2023-10-08T11:45:44;26.10;37.80
23633;DHT22;11993;48.748;9.166;2023-10-08T11:48:18;26.70;37.80
23633;DHT22;11993;48.748;9.166;2023-10-08T11:50:54;27.40;38.00
23633;DHT22;11993;48.748;9.166;2023-10-08T11:53:23;27.40;36.70
23633;DHT22;11993;48.748;9.166;2023-10-08T11:55:50;26.90;36.50
23633;DHT22;11993;48.748;9.166;2023-10-08T11:58:19;27.80;35.50
23633;DHT22;11993;48.748;9.166;2023-10-08T12:00:46;28.20;34.40
23633;DHT22;11993;48.748;9.166;2023-10-08T12:03:15;28.90;34.20
23633;DHT22;11993;48.748;9.166;2023-10-08T12:05:47;27.70;36.00
23633;DHT22;11993;48.748;9.166;2023-10-08T12:08:18;28.60;34.00
23633;DHT22;11993;48.748;9.166;2023-10-08T12:10:46;29.20;34.00
23633;DHT22;11993;48.748;9.166;2023-10-08T12:13:13;29.10;33.90
23633;DHT22;11993;48.748;9.166;2023-10-08T12:15:40;29.80;33.30
23633;DHT22;11993;48.748;9.166;2023-10-08T12:18:07;29.90;32.50
23633;DHT22;11993;48.748;9.166;2023-10-08T12:20:51;29.10;33.50
23633;DHT22;11993;48.748;9.166;2023-10-08T12:23:18;30.20;32.70
23633;DHT22;11993;48.748;9.166;2023-10-08T12:25:55;30.60;30.80
23633;DHT22;11993;48.748;9.166;2023-10-08T12:28:24;30.50;31.80
23633;DHT22;11993;48.748;9.166;2023-10-08T12:30:51;30.60;31.30
23633;DHT22;11993;48.748;9.166;2023-10-08T12:33:24;30.10;32.20
23633;DHT22;11993;48.748;9.166;2023-10-08T12:35:51;29.90;32.50
23633;DHT22;11993;48.748;9.166;2023-10-08T12:38:24;30.50;31.80
23633;DHT22;11993;48.748;9.166;2023-10-08T12:40:53;30.70;31.40
23633;DHT22;11993;48.748;9.166;2023-10-08T12:43:23;31.10;31.10
23633;DHT22;11993;48.748;9.166;2023-10-08T12:45:53;31.10;31.00
23633;DHT22;11993;48.748;9.166;2023-10-08T12:48:23;31.30;31.20
23633;DHT22;11993;48.748;9.166;2023-10-08T12:50:53;31.10;29.30
23633;DHT22;11993;48.748;9.166;2023-10-08T12:53:25;31.40;30.20
23633;DHT22;11993;48.748;9.166;2023-10-08T12:56:05;31.90;28.80
23633;DHT22;11993;48.748;9.166;2023-10-08T12:58:36;30.60;29.30
23633;DHT22;11993;48.748;9.166;2023-10-08T13:01:10;31.30;29.00
23633;DHT22;11993;48.748;9.166;2023-10-08T13:03:39;31.50;28.50
23633;DHT22;11993;48.748;9.166;2023-10-08T13:06:09;31.50;29.30
23633;DHT22;11993;48.748;9.166;2023-10-08T13:08:40;32.50;28.60
23633;DHT22;11993;48.748;9.166;2023-10-08T13:11:06;32.50;28.50
23633;DHT22;11993;48.748;9.166;2023-10-08T13:13:31;32.90;27.30
23633;DHT22;11993;48.748;9.166;2023-10-08T13:16:02;32.60;27.20
23633;DHT22;11993;48.748;9.166;2023-10-08T13:18:33;32.70;27.40
23633;DHT22;11993;48.748;9.166;2023-10-08T13:20:58;32.60;28.00
23633;DHT22;11993;48.748;9.166;2023-10-08T13:23:24;32.10;27.40
23633;DHT22;11993;48.748;9.166;2023-10-08T13:25:50;32.40;28.00
23633;DHT22;11993;48.748;9.166;2023-10-08T13:28:24;32.60;27.40
23633;DHT22;11993;48.748;9.166;2023-10-08T13:30:53;32.00;27.60
23633;DHT22;11993;48.748;9.166;2023-10-08T13:33:20;32.40;27.30
23633;DHT22;11993;48.748;9.166;2023-10-08T13:35:50;32.40;27.60
23633;DHT22;11993;48.748;9.166;2023-10-08T13:38:19;32.10;27.30
23633;DHT22;11993;48.748;9.166;2023-10-08T13:40:48;32.30;27.60
23633;DHT22;11993;48.748;9.166;2023-10-08T13:43:33;32.50;26.50
23633;DHT22;11993;48.748;9.166;2023-10-08T13:46:08;31.60;27.90
23633;DHT22;11993;48.748;9.166;2023-10-08T13:48:39;31.90;27.60
23633;DHT22;11993;48.748;9.166;2023-10-08T13:51:06;31.80;27.40
23633;DHT22;11993;48.748;9.166;2023-10-08T13:53:36;32.10;27.30
23633;DHT22;11993;48.748;9.166;2023-10-08T13:56:04;31.80;27.30
23633;DHT22;11993;48.748;9.166;2023-10-08T13:58:31;32.00;26.90
23633;DHT22;11993;48.748;9.166;2023-10-08T14:00:59;31.90;28.10
23633;DHT22;11993;48.748;9.166;2023-10-08T14:03:26;32.10;27.60
23633;DHT22;11993;48.748;9.166;2023-10-08T14:05:54;31.50;28.00
23633;DHT22;11993;48.748;9.166;2023-10-08T14:08:20;31.50;28.30
23633;DHT22;11993;48.748;9.166;2023-10-08T14:10:47;31.00;29.10
23633;DHT22;11993;48.748;9.166;2023-10-08T14:13:15;31.10;28.60
23633;DHT22;11993;48.748;9.166;2023-10-08T14:15:46;31.20;28.30
23633;DHT22;11993;48.748;9.166;2023-10-08T14:18:14;31.00;28.60
23633;DHT22;11993;48.748;9.166;2023-10-08T14:20:44;30.60;28.80
23633;DHT22;11993;48.748;9.166;2023-10-08T14:23:12;30.50;29.40
23633;DHT22;11993;48.748;9.166;2023-10-08T14:25:38;30.10;30.40
23633;DHT22;11993;48.748;9.166;2023-10-08T14:28:11;30.30;30.10
23633;DHT22;11993;48.748;9.166;2023-10-08T14:30:48;29.60;30.20
23633;DHT22;11993;48.748;9.166;2023-10-08T14:33:18;29.50;30.70
23633;DHT22;11993;48.748;9.166;2023-10-08T14:35:50;30.10;29.80
23633;DHT22;11993;48.748;9.166;2023-10-08T14:38:34;30.30;29.80
23633;DHT22;11993;48.748;9.166;2023-10-08T14:41:18;29.40;30.70
23633;DHT22;11993;48.748;9.166;2023-10-08T14:44:03;29.50;30.40
23633;DHT22;11993;48.748;9.166;2023-10-08T14:46:30;29.60;30.70
23633;DHT22;11993;48.748;9.166;2023-10-08T14:48:58;29.80;30.40
23633;DHT22;11993;48.748;9.166;2023-10-08T14:51:24;29.50;30.80
23633;DHT22;11993;48.748;9.166;2023-10-08T14:53:51;29.20;30.90
23633;DHT22;11993;48.748;9.166;2023-10-08T14:56:17;29.10;30.90
23633;DHT22;11993;48.748;9.166;2023-10-08T14:58:45;28.80;31.30
23633;DHT22;11993;48.748;9.166;2023-10-08T15:01:10;28.40;31.90
23633;DHT22;11993;48.748;9.166;2023-10-08T15:03:39;28.40;32.20
23633;DHT22;11993;48.748;9.166;2023-10-08T15:06:04;28.50;31.90
23633;DHT22;11993;48.748;9.166;2023-10-08T15:08:32;27.50;33.20
23633;DHT22;11993;48.748;9.166;2023-10-08T15:10:58;27.50;33.30
23633;DHT22;11993;48.748;9.166;2023-10-08T15:13:23;27.20;34.20
23633;DHT22;11993;48.748;9.166;2023-10-08T15:15:50;27.40;33.80
23633;DHT22;11993;48.748;9.166;2023-10-08T15:18:16;27.30;33.60
23633;DHT22;11993;48.748;9.166;2023-10-08T15:20:44;27.30;34.10
23633;DHT22;11993;48.748;9.166;2023-10-08T15:23:10;26.90;34.50
23633;DHT22;11993;48.748;9.166;2023-10-08T15:25:38;26.40;34.90
23633;DHT22;11993;48.748;9.166;2023-10-08T15:28:05;26.40;35.60
23633;DHT22;11993;48.748;9.166;2023-10-08T15:30:31;26.50;35.20
23633;DHT22;11993;48.748;9.166;2023-10-08T15:32:58;26.50;35.40
23633;DHT22;11993;48.748;9.166;2023-10-08T15:35:23;26.10;36.10
23633;DHT22;11993;48.748;9.166;2023-10-08T15:37:51;25.90;36.30
23633;DHT22;11993;48.748;9.166;2023-10-08T15:40:16;25.90;36.40
23633;DHT22;11993;48.748;9.166;2023-10-08T15:42:50;25.70;36.40
23633;DHT22;11993;48.748;9.166;2023-10-08T15:45:17;25.60;36.90
23633;DHT22;11993;48.748;9.166;2023-10-08T15:47:43;25.30;37.20
23633;DHT22;11993;48.748;9.166;2023-10-08T15:50:09;25.20;37.50
23633;DHT22;11993;48.748;9.166;2023-10-08T15:52:38;25.00;37.70
23633;DHT22;11993;48.748;9.166;2023-10-08T15:55:07;24.90;38.30
23633;DHT22;11993;48.748;9.166;2023-10-08T15:57:33;24.90;38.70
23633;DHT22;11993;48.748;9.166;2023-10-08T15:59:59;25.00;39.50
23633;DHT22;11993;48.748;9.166;2023-10-08T16:02:25;25.10;39.50
23633;DHT22;11993;48.748;9.166;2023-10-08T16:04:50;25.20;39.30
23633;DHT22;11993;48.748;9.166;2023-10-08T16:07:16;25.20;39.20
23633;DHT22;11993;48.748;9.166;2023-10-08T16:09:41;25.10;39.40